Time;durP1;ratioP1;P1;durP2;ratioP2;P2;SDS_P1;SDS_P2;PMS_P1;PMS_P2;Temp;Humidity;BMP_temperature;BMP_pressure;BME280_temperature;BME280_humidity;BME280_pressure;Samples;Min_cycle;Max_cycle;Signal;HPM_P1;HPM_P2
2021/01/06 00:00:15;;;;;;;16.13;14.57;;;;;;;0.56;77.92;99714.16;10421775;28;20096;-66
2021/01/06 00:05:24;;;;;;;17.20;13.32;;;;;;;0.59;77.85;99708.13;10421667;28;20038;-66
2021/01/06 00:10:28;;;;;;;22.23;14.75;;;;;;;0.63;77.80;99707.28;10421549;28;20128;-66
2021/01/06 00:15:35;;;;;;;18.90;16.23;;;;;;;0.63;77.93;99709.88;10421156;28;20045;-67
2021/01/06 00:20:36;;;;;;;22.98;17.45;;;;;;;0.80;77.39;99703.03;10422245;28;20128;-66
2021/01/06 00:25:41;;;;;;;25.92;17.38;;;;;;;0.82;77.56;99698.69;10403397;28;20045;-67
2021/01/06 00:31:00;;;;;;;31.52;18.55;;;;;;;0.83;77.34;99692.66;10421333;28;20099;-66
2021/01/06 00:36:09;;;;;;;32.25;19.58;;;;;;;0.83;77.44;99700.44;10420470;28;20042;-67
2021/01/06 00:41:10;;;;;;;44.78;21.08;;;;;;;0.59;78.11;99701.25;10420712;28;20514;-67
2021/01/06 00:46:11;;;;;;;44.80;21.20;;;;;;;0.81;77.71;99699.56;10420794;28;20042;-66
2021/01/06 00:51:12;;;;;;;36.35;21.15;;;;;;;0.65;78.17;99698.66;10420007;28;20076;-66
2021/01/06 00:56:14;;;;;;;44.88;22.02;;;;;;;0.72;78.08;99705.59;10402619;28;20095;-67
2021/01/06 01:01:15;;;;;;;45.42;21.60;;;;;;;0.74;78.35;99697.81;10401821;28;20091;-67
2021/01/06 01:06:28;;;;;;;41.75;21.60;;;;;;;0.75;77.89;99696.94;10401551;28;20045;-67
2021/01/06 01:11:30;;;;;;;35.47;20.58;;;;;;;0.78;77.93;99694.38;10419933;28;20045;-67
2021/01/06 01:16:31;;;;;;;38.13;20.38;;;;;;;0.92;77.19;99695.25;10419135;28;20037;-66
2021/01/06 01:21:33;;;;;;;37.35;21.88;;;;;;;0.84;77.49;99691.81;10418671;28;20495;-67
2021/01/06 01:26:34;;;;;;;34.15;20.00;;;;;;;0.90;77.41;99702.19;10418842;28;20469;-67
2021/01/06 01:31:37;;;;;;;37.75;22.35;;;;;;;0.84;77.51;99701.28;10418328;28;20046;-66
2021/01/06 01:36:38;;;;;;;36.92;20.73;;;;;;;0.93;77.08;99699.59;10419322;28;20468;-67
2021/01/06 01:41:39;;;;;;;46.28;22.38;;;;;;;0.91;77.29;99697.88;10400427;28;20069;-67
2021/01/06 01:46:46;;;;;;;44.33;22.17;;;;;;;0.87;77.51;99684.03;10418409;28;20457;-66
2021/01/06 01:52:02;;;;;;;42.87;23.57;;;;;;;1.00;77.61;99677.16;10417606;28;20084;-66
2021/01/06 01:57:11;;;;;;;46.60;23.85;;;;;;;0.81;77.61;99668.53;10417697;28;20335;-67
2021/01/06 02:02:26;;;;;;;53.35;24.63;;;;;;;0.73;77.93;99663.31;10417365;28;20136;-67
2021/01/06 02:07:33;;;;;;;57.47;24.58;;;;;;;0.52;78.75;99649.47;10417228;28;20129;-66
2021/01/06 02:13:16;;;;;;;46.28;23.42;;;;;;;0.66;78.87;99637.44;10416823;28;20132;-67
2021/01/06 02:18:18;;;;;;;45.78;23.35;;;;;;;0.71;78.23;99639.19;10417715;28;20049;-66
2021/01/06 02:23:19;;;;;;;43.55;22.67;;;;;;;0.89;77.89;99646.13;10416909;28;20042;-67
2021/01/06 02:28:20;;;;;;;42.33;21.67;;;;;;;0.85;77.89;99641.78;10398225;28;20080;-66
2021/01/06 02:33:22;;;;;;;40.25;22.60;;;;;;;0.92;77.90;99646.09;10431640;22;20092;-67
2021/01/06 02:38:24;;;;;;;33.78;19.77;;;;;;;0.94;77.63;99646.13;10420591;28;20061;-67
2021/01/06 02:43:27;;;;;;;33.10;20.05;;;;;;;0.82;77.77;99646.09;10418821;28;20033;-68
2021/01/06 02:48:29;;;;;;;39.53;20.80;;;;;;;0.80;77.95;99640.03;10420364;28;20049;-69
2021/01/06 02:53:39;;;;;;;29.63;19.15;;;;;;;0.93;77.64;99639.19;10422570;28;20468;-69
2021/01/06 02:58:42;;;;;;;25.15;17.60;;;;;;;0.97;77.73;99641.81;10423439;28;20048;-68
2021/01/06 03:03:43;;;;;;;29.95;19.13;;;;;;;1.08;77.40;99636.63;10418412;28;20069;-68
2021/01/06 03:08:47;;;;;;;23.42;17.42;;;;;;;0.84;78.06;99627.13;10422509;28;20042;-68
2021/01/06 03:13:48;;;;;;;21.35;15.13;;;;;;;0.85;77.64;99625.41;10417947;28;20124;-68
2021/01/06 03:18:51;;;;;;;16.95;15.15;;;;;;;0.90;77.77;99626.28;10422215;28;20099;-67
2021/01/06 03:23:55;;;;;;;13.25;11.85;;;;;;;0.82;77.60;99623.66;10423524;28;20069;-67
2021/01/06 03:28:57;;;;;;;14.20;12.32;;;;;;;0.85;77.84;99618.50;10424345;28;20136;-69
2021/01/06 03:34:03;;;;;;;12.95;11.65;;;;;;;1.05;77.48;99607.28;10423851;28;20068;-68
2021/01/06 03:39:10;;;;;;;11.57;10.38;;;;;;;1.06;77.41;99609.88;10424482;28;20435;-67
2021/01/06 03:44:13;;;;;;;12.00;10.63;;;;;;;0.95;77.35;99602.13;10424616;28;20041;-68
2021/01/06 03:49:44;;;;;;;11.95;10.63;;;;;;;0.99;77.56;99598.66;10423918;28;20052;-68
2021/01/06 03:55:06;;;;;;;11.18;10.07;;;;;;;1.03;77.28;99593.50;10424590;28;20091;-68
2021/01/06 04:00:13;;;;;;;10.90;9.80;;;;;;;0.99;77.40;99590.91;10423959;28;20041;-67
2021/01/06 04:05:16;;;;;;;10.30;9.20;;;;;;;0.88;77.43;99584.84;10423879;28;20055;-68
2021/01/06 04:10:22;;;;;;;10.23;9.23;;;;;;;0.90;77.73;99590.91;10423286;28;20530;-68
2021/01/06 04:15:24;;;;;;;10.98;9.80;;;;;;;1.05;77.68;99581.41;10423151;28;20041;-68
2021/01/06 04:20:36;;;;;;;12.20;11.00;;;;;;;1.11;77.51;99578.84;10422664;28;20061;-67
2021/01/06 04:25:45;;;;;;;11.07;9.88;;;;;;;1.11;77.50;99576.25;10422871;28;20084;-67
2021/01/06 04:30:49;;;;;;;9.95;9.00;;;;;;;1.14;77.31;99568.44;10420572;28;20041;-67
2021/01/06 04:35:52;;;;;;;11.63;10.27;;;;;;;1.06;77.82;99565.88;10421666;28;20490;-67
2021/01/06 04:40:57;;;;;;;11.18;10.05;;;;;;;1.21;77.00;99558.09;10421079;28;20557;-66
2021/01/06 04:46:43;;;;;;;11.20;10.10;;;;;;;1.21;76.91;99555.50;10421926;28;20092;-64
2021/01/06 04:52:04;;;;;;;12.25;10.93;;;;;;;1.16;76.99;99559.84;10419876;28;20115;-65
2021/01/06 04:57:08;;;;;;;14.25;12.15;;;;;;;1.02;77.23;99556.41;10421097;28;20041;-65
2021/01/06 05:02:18;;;;;;;14.82;12.10;;;;;;;1.22;77.49;99557.22;10420335;28;20045;-66
2021/01/06 05:07:41;;;;;;;14.77;12.45;;;;;;;1.12;77.63;99552.94;10421570;28;20041;-65
2021/01/06 05:12:45;;;;;;;13.82;12.35;;;;;;;1.11;77.78;99540.88;10422265;28;20103;-65
2021/01/06 05:17:46;;;;;;;14.43;12.75;;;;;;;1.10;77.75;99543.44;10422951;28;20046;-64
2021/01/06 05:22:48;;;;;;;15.88;12.82;;;;;;;1.17;77.70;99540.84;10420998;28;20072;-65
2021/01/06 05:27:50;;;;;;;15.98;12.32;;;;;;;1.01;77.88;99539.13;10419937;28;20073;-65
2021/01/06 05:32:59;;;;;;;14.10;12.70;;;;;;;1.09;78.50;99540.00;10419332;28;20411;-64
2021/01/06 05:38:01;;;;;;;12.48;11.32;;;;;;;1.26;77.74;99543.41;10419413;28;20111;-64
2021/01/06 05:43:06;;;;;;;13.40;12.10;;;;;;;1.21;77.34;99545.16;10420212;28;20049;-65
2021/01/06 05:48:21;;;;;;;12.55;11.30;;;;;;;1.20;77.86;99545.16;10385713;28;20053;-66
2021/01/06 05:53:34;;;;;;;14.07;12.77;;;;;;;1.17;77.82;99545.16;10419740;28;20107;-65
2021/01/06 05:58:47;;;;;;;13.15;11.70;;;;;;;1.22;77.65;99546.00;10418486;28;20037;-66
2021/01/06 06:04:42;;;;;;;13.25;11.38;;;;;;;1.40;77.13;99548.56;10420053;28;20052;-66
2021/01/06 06:09:52;;;;;;;12.93;11.68;;;;;;;1.37;77.45;99545.09;10295531;28;20500;-66
2021/01/06 06:14:53;;;;;;;16.73;15.07;;;;;;;1.22;77.72;99541.69;10276187;28;20043;-66
2021/01/06 06:20:12;;;;;;;14.57;13.18;;;;;;;1.33;77.61;99543.38;10291751;28;20061;-66
2021/01/06 06:25:24;;;;;;;14.45;13.15;;;;;;;1.47;77.09;99547.69;10291983;28;20512;-66
2021/01/06 06:30:52;;;;;;;13.75;12.55;;;;;;;1.42;77.09;99551.16;10291662;28;20057;-66
2021/01/06 06:35:55;;;;;;;19.88;13.48;;;;;;;1.38;77.28;99552.03;10275255;28;20046;-66
2021/01/06 06:41:04;;;;;;;16.25;14.85;;;;;;;1.30;77.90;99549.44;10325701;28;20061;-66
2021/01/06 06:46:18;;;;;;;14.77;13.43;;;;;;;1.31;77.70;99563.25;10417559;28;20037;-65
2021/01/06 06:51:47;;;;;;;19.98;17.90;;;;;;;1.45;77.48;99564.06;10415899;28;20092;-65
2021/01/06 06:56:57;;;;;;;16.48;14.82;;;;;;;1.19;77.94;99566.72;10416908;28;20068;-65
2021/01/06 07:02:00;;;;;;;16.92;15.13;;;;;;;1.22;78.09;99558.94;10417271;28;20128;-65
2021/01/06 07:07:04;;;;;;;16.95;15.07;;;;;;;1.50;77.51;99564.94;10415884;28;20046;-65
2021/01/06 07:12:08;;;;;;;16.10;14.60;;;;;;;1.44;77.36;99571.00;10415525;28;20050;-65
2021/01/06 07:17:32;;;;;;;16.20;14.73;;;;;;;1.42;77.41;99567.56;10416669;28;20117;-65
2021/01/06 07:23:03;;;;;;;19.38;17.33;;;;;;;1.23;78.17;99576.22;10415764;28;20052;-65
2021/01/06 07:28:12;;;;;;;20.58;18.63;;;;;;;1.23;78.12;99569.28;10415339;28;20434;-65
2021/01/06 07:33:44;;;;;;;19.65;17.85;;;;;;;1.33;78.39;99571.88;10418006;28;20100;-65
2021/01/06 07:38:48;;;;;;;15.60;14.20;;;;;;;1.53;77.09;99575.28;10416670;28;20049;-65
2021/01/06 07:44:30;;;;;;;16.05;14.65;;;;;;;1.47;77.30;99583.94;10417221;28;20033;-66
2021/01/06 07:49:43;;;;;;;14.50;13.27;;;;;;;1.40;77.46;99590.00;10415640;28;20111;-65
2021/01/06 07:54:53;;;;;;;17.40;15.75;;;;;;;1.25;77.72;99575.34;10416393;28;20049;-66
2021/01/06 08:00:00;;;;;;;16.50;15.00;;;;;;;1.21;77.82;99577.94;10416527;28;20049;-65
2021/01/06 08:05:28;;;;;;;14.75;13.30;;;;;;;1.29;77.85;99583.13;10420543;28;20376;-66
2021/01/06 08:10:31;;;;;;;10.07;9.13;;;;;;;1.67;76.02;99593.38;10416124;28;20096;-65
2021/01/06 08:15:32;;;;;;;11.48;10.55;;;;;;;1.67;75.87;99596.81;10422579;28;20388;-65
2021/01/06 08:20:38;;;;;;;9.13;8.15;;;;;;;1.42;76.42;99590.00;10423558;28;20057;-64
2021/01/06 08:25:41;;;;;;;10.48;9.20;;;;;;;1.49;76.21;99596.88;10422522;28;20080;-64
2021/01/06 08:30:43;;;;;;;11.90;10.82;;;;;;;1.31;76.60;99584.81;10422778;28;20041;-65
2021/01/06 08:35:47;;;;;;;9.57;8.88;;;;;;;1.52;76.15;99582.19;10416540;22;20137;-66
2021/01/06 08:40:48;;;;;;;9.02;7.40;;;;;;;1.40;76.16;99586.53;10360527;28;20084;-65
2021/01/06 08:45:58;;;;;;;6.10;5.68;;;;;;;1.39;76.76;99580.50;10378108;28;20041;-65
2021/01/06 08:51:10;;;;;;;8.55;7.75;;;;;;;1.71;75.86;99582.13;10377902;28;20131;-65
2021/01/06 08:56:22;;;;;;;;;;;;;;;1.55;76.01;99581.34;10361356;28;20061;-65
2021/01/06 09:01:42;;;;;;;6.75;6.05;;;;;;;1.60;75.93;99579.59;10377340;28;20012;-65
2021/01/06 09:07:06;;;;;;;5.50;4.93;;;;;;;1.54;75.90;99583.91;10377507;28;20069;-65
2021/01/06 09:12:28;;;;;;;5.53;5.13;;;;;;;1.45;76.29;99574.44;10366190;28;20447;-65
2021/01/06 09:17:35;;;;;;;6.13;5.63;;;;;;;1.58;76.20;99573.53;10375495;28;20084;-65
2021/01/06 09:22:36;;;;;;;7.13;6.43;;;;;;;1.51;76.29;99580.47;10377064;28;20046;-65
2021/01/06 09:27:44;;;;;;;4.78;4.38;;;;;;;1.48;75.80;99577.03;10376014;28;20352;-65
2021/01/06 09:32:47;;;;;;;5.25;4.85;;;;;;;1.26;76.58;99583.97;10376121;28;20092;-65
2021/01/06 09:38:01;;;;;;;5.75;5.10;;;;;;;1.52;76.19;99577.03;10375814;28;20511;-65
2021/01/06 09:43:08;;;;;;;5.22;4.82;;;;;;;1.52;76.15;99574.44;10376495;28;20077;-65
2021/01/06 09:48:12;;;;;;;4.82;4.45;;;;;;;1.38;75.88;99583.97;10376004;28;20400;-66
2021/01/06 09:53:18;;;;;;;3.40;3.10;;;;;;;1.30;75.79;99579.66;10375554;28;20050;-66
2021/01/06 09:58:36;;;;;;;5.85;3.85;;;;;;;1.23;76.25;99581.38;10376478;28;20048;-66
2021/01/06 10:03:40;;;;;;;5.88;4.95;;;;;;;1.39;76.08;99577.06;10376197;28;20113;-66
2021/01/06 10:08:51;;;;;;;5.03;4.63;;;;;;;1.49;75.57;99570.97;10375187;28;20463;-66
2021/01/06 10:14:24;;;;;;;5.47;4.97;;;;;;;1.39;75.91;99572.72;10375647;28;20480;-66
2021/01/06 10:19:38;;;;;;;4.90;4.50;;;;;;;1.49;75.42;99566.66;10357343;28;20053;-66
2021/01/06 10:25:07;;;;;;;5.70;5.30;;;;;;;1.46;75.83;99566.69;10374656;28;20128;-67
2021/01/06 10:30:14;;;;;;;5.00;4.00;;;;;;;1.28;76.08;99564.09;10371239;28;20057;-65
2021/01/06 10:35:37;;;;;;;4.32;4.03;;;;;;;1.15;76.54;99558.13;10370849;28;20069;-65
2021/01/06 10:40:42;;;;;;;4.22;3.83;;;;;;;1.21;76.46;99549.47;10371476;28;20049;-66
2021/01/06 10:45:44;;;;;;;4.82;4.43;;;;;;;1.37;76.69;99547.69;10374376;28;20034;-66
2021/01/06 10:50:46;;;;;;;4.55;4.25;;;;;;;1.34;76.27;99552.91;10374144;28;20073;-66
2021/01/06 10:56:02;;;;;;;3.67;3.35;;;;;;;1.20;76.37;99543.44;10373445;28;20506;-65
2021/01/06 11:01:18;;;;;;;4.32;3.92;;;;;;;1.25;75.77;99536.50;10375540;28;20048;-65
2021/01/06 11:06:21;;;;;;;3.50;3.20;;;;;;;1.10;76.10;99535.66;10356463;28;20050;-65
2021/01/06 11:11:29;;;;;;;2.85;2.65;;;;;;;1.08;75.69;99532.22;10356519;28;20058;-65
2021/01/06 11:16:47;;;;;;;2.53;2.33;;;;;;;0.97;75.79;99522.75;10375409;28;20125;-65
2021/01/06 11:22:17;;;;;;;2.47;2.10;;;;;;;1.08;75.38;99525.31;10373365;28;20100;-65
2021/01/06 11:27:43;;;;;;;2.38;2.17;;;;;;;1.04;75.67;99530.50;10373195;28;20046;-65
2021/01/06 11:32:45;;;;;;;2.30;2.10;;;;;;;0.88;76.23;99533.09;10374066;28;20051;-66
2021/01/06 11:37:47;;;;;;;2.47;2.28;;;;;;;0.97;75.84;99529.63;10373364;28;20045;-66
2021/01/06 11:43:06;;;;;;;3.03;2.30;;;;;;;1.19;74.83;99520.97;10381436;28;20057;-66
2021/01/06 11:48:25;;;;;;;2.65;2.45;;;;;;;1.23;75.52;99525.28;10380628;28;20044;-66
2021/01/06 11:53:37;;;;;;;4.15;3.85;;;;;;;1.12;75.89;99521.88;10380997;28;20045;-65
2021/01/06 11:58:56;;;;;;;2.55;2.35;;;;;;;1.15;75.68;99510.63;10381274;28;20125;-65
2021/01/06 12:04:03;;;;;;;5.47;4.35;;;;;;;1.29;74.61;99513.22;10380530;28;20046;-65
2021/01/06 12:09:15;;;;;;;3.30;3.00;;;;;;;1.27;74.43;99500.25;10380089;28;20131;-65
2021/01/06 12:14:31;;;;;;;2.53;2.33;;;;;;;1.28;75.01;99494.19;10378919;28;20303;-65
2021/01/06 12:19:36;;;;;;;3.37;2.97;;;;;;;1.17;75.56;99496.84;10362015;28;20108;-65
2021/01/06 12:24:37;;;;;;;2.20;2.03;;;;;;;1.22;75.36;99489.06;10379812;28;20080;-65
2021/01/06 12:29:57;;;;;;;3.72;3.40;;;;;;;1.14;75.61;99493.38;10379404;28;20117;-65
2021/01/06 12:35:35;;;;;;;3.45;2.25;;;;;;;1.33;74.78;99486.41;10380977;28;20045;-65
2021/01/06 12:41:06;;;;;;;4.32;3.97;;;;;;;1.21;74.69;99480.44;10363843;28;20128;-66
2021/01/06 12:46:12;;;;;;;4.80;4.40;;;;;;;1.26;74.78;99480.41;10371872;28;20058;-66
2021/01/06 12:51:17;;;;;;;4.57;4.18;;;;;;;1.14;75.24;99476.13;10378197;28;20073;-66
2021/01/06 12:56:32;;;;;;;3.22;2.92;;;;;;;0.92;76.16;99474.44;10361437;28;20034;-66
2021/01/06 13:01:57;;;;;;;4.03;2.97;;;;;;;0.87;76.43;99483.94;10378043;28;20088;-66
2021/01/06 13:07:14;;;;;;;2.08;1.88;;;;;;;1.08;75.34;99477.88;10378162;28;20043;-66
2021/01/06 13:13:00;;;;;;;2.78;2.30;;;;;;;1.13;75.37;99479.59;10377497;28;20046;-66
2021/01/06 13:18:05;;;;;;;2.42;1.95;;;;;;;1.43;74.36;99477.78;10368364;28;20068;-66
2021/01/06 13:23:34;;;;;;;2.67;2.28;;;;;;;1.17;75.15;99481.31;10377825;28;20419;-66
2021/01/06 13:28:37;;;;;;;2.65;2.45;;;;;;;1.30;74.67;99481.28;10377644;28;20045;-65
2021/01/06 13:33:49;;;;;;;2.00;1.70;;;;;;;1.32;74.39;99482.97;10376774;28;20085;-65
2021/01/06 13:39:00;;;;;;;3.53;3.22;;;;;;;1.17;75.02;99483.03;10377850;28;20514;-66
2021/01/06 13:44:16;;;;;;;2.53;2.33;;;;;;;1.43;73.89;99481.22;10377172;28;20038;-65
2021/01/06 13:49:28;;;;;;;2.33;1.90;;;;;;;1.47;73.84;99477.75;10376321;28;20053;-67
2021/01/06 13:54:37;;;;;;;2.20;1.80;;;;;;;1.66;73.01;99477.66;10376875;28;20495;-65
2021/01/06 13:59:45;;;;;;;1.73;1.60;;;;;;;1.41;74.12;99482.06;10376788;28;20073;-65
2021/01/06 14:04:51;;;;;;;1.95;1.85;;;;;;;1.26;74.97;99483.84;10375580;28;20041;-65
2021/01/06 14:10:43;;;;;;;2.92;1.88;;;;;;;1.46;73.89;99485.50;10375843;28;20107;-65
2021/01/06 14:16:04;;;;;;;1.60;1.50;;;;;;;1.58;73.48;99495.81;10211353;29;20499;-65
2021/01/06 14:21:18;;;;;;;1.95;1.85;;;;;;;1.41;73.72;99492.44;10212065;29;20048;-66
2021/01/06 14:26:20;;;;;;;2.20;1.48;;;;;;;1.43;73.26;99491.56;10211430;29;20052;-66
2021/01/06 14:31:32;;;;;;;1.60;1.50;;;;;;;1.37;73.54;99496.75;10210983;29;20214;-66
2021/01/06 14:36:56;;;;;;;2.25;2.05;;;;;;;1.47;73.14;99495.03;10324160;22;20438;-65
2021/01/06 14:42:16;;;;;;;2.08;1.98;;;;;;;1.49;73.59;99496.72;10377248;28;20042;-67
2021/01/06 14:47:36;;;;;;;2.10;1.90;;;;;;;1.38;74.07;99498.50;10392234;28;20499;-66
2021/01/06 14:52:56;;;;;;;3.15;1.90;;;;;;;1.42;74.72;99499.38;10376721;28;20045;-66
2021/01/06 14:58:01;;;;;;;2.63;2.38;;;;;;;1.22;75.10;99500.25;10370093;28;20491;-66
2021/01/06 15:03:21;;;;;;;2.72;2.33;;;;;;;1.12;74.99;99497.72;10376404;28;20041;-67
2021/01/06 15:08:27;;;;;;;4.05;2.45;;;;;;;1.25;74.76;99509.75;10360082;28;20399;-66
2021/01/06 15:13:31;;;;;;;2.92;2.63;;;;;;;1.23;74.33;99496.81;10337367;28;20042;-66
2021/01/06 15:18:32;;;;;;;2.92;2.38;;;;;;;1.09;74.91;99492.53;10350119;28;20048;-67
2021/01/06 15:23:46;;;;;;;2.88;2.30;;;;;;;1.29;73.66;99489.91;10335760;28;20058;-67
2021/01/06 15:28:50;;;;;;;2.95;2.58;;;;;;;1.32;73.51;99488.16;10336485;28;20093;-65
2021/01/06 15:34:01;;;;;;;4.10;3.55;;;;;;;1.35;73.74;99479.53;10349820;28;20133;-66
2021/01/06 15:39:30;;;;;;;3.15;2.83;;;;;;;1.27;73.62;99482.13;10334720;28;20133;-66
2021/01/06 15:44:35;;;;;;;4.57;4.18;;;;;;;1.09;74.30;99489.94;10334840;28;20101;-67
2021/01/06 15:49:44;;;;;;;5.43;4.93;;;;;;;1.19;73.53;99495.09;10335385;28;20042;-67
2021/01/06 15:55:08;;;;;;;6.70;5.88;;;;;;;1.36;73.12;99492.44;10335610;28;20057;-65
2021/01/06 16:00:16;;;;;;;5.50;3.10;;;;;;;1.45;71.82;99501.91;10333158;28;20050;-65
2021/01/06 16:05:44;;;;;;;3.58;3.20;;;;;;;1.31;72.87;99504.56;10333982;28;20054;-66
2021/01/06 16:10:47;;;;;;;3.40;3.10;;;;;;;1.51;72.39;99507.09;10331688;28;20089;-66
2021/01/06 16:15:50;;;;;;;4.40;3.55;;;;;;;1.35;73.20;99508.88;10333612;28;20043;-66
2021/01/06 16:21:05;;;;;;;3.65;3.17;;;;;;;1.45;73.17;99517.47;10333424;28;20050;-66
2021/01/06 16:26:24;;;;;;;4.57;3.60;;;;;;;1.57;72.30;99512.25;10338361;28;20046;-66
2021/01/06 16:31:45;;;;;;;4.28;3.67;;;;;;;1.49;72.43;99514.84;10340848;28;20087;-66
2021/01/06 16:36:47;;;;;;;4.03;3.72;;;;;;;1.44;72.52;99515.75;10340767;28;20046;-67
2021/01/06 16:41:52;;;;;;;3.55;3.25;;;;;;;1.21;72.53;99514.09;10339717;28;20056;-66
2021/01/06 16:47:03;;;;;;;4.63;4.22;;;;;;;1.06;73.52;99515.81;10340192;28;20125;-66
2021/01/06 16:52:16;;;;;;;4.10;3.80;;;;;;;1.05;73.34;99521.88;10341110;28;20475;-66
2021/01/06 16:57:28;;;;;;;5.25;4.70;;;;;;;1.19;72.79;99525.28;10338761;28;20080;-66
2021/01/06 17:02:31;;;;;;;4.60;4.20;;;;;;;0.95;72.75;99528.78;10336274;28;20034;-66
2021/01/06 17:07:36;;;;;;;3.13;2.83;;;;;;;0.94;72.11;99530.53;10334642;28;20047;-67
2021/01/06 17:12:37;;;;;;;2.97;2.78;;;;;;;0.99;71.74;99525.34;10334945;28;20440;-66
2021/01/06 17:17:38;;;;;;;3.80;3.50;;;;;;;1.11;71.36;99529.66;10336142;28;20496;-66
2021/01/06 17:22:40;;;;;;;3.97;3.67;;;;;;;0.76;72.77;99527.97;10336950;28;20046;-66
2021/01/06 17:27:45;;;;;;;3.95;3.65;;;;;;;0.84;72.31;99539.16;10338355;28;20073;-66
2021/01/06 17:32:59;;;;;;;2.90;2.70;;;;;;;1.03;70.68;99544.31;10339218;28;20042;-67
2021/01/06 17:38:09;;;;;;;2.75;2.55;;;;;;;0.98;69.98;99542.59;10353252;28;20225;-67
2021/01/06 17:43:11;;;;;;;3.25;3.00;;;;;;;0.99;70.42;99543.47;10339180;28;20065;-67
2021/01/06 17:48:18;;;;;;;2.83;2.63;;;;;;;0.99;68.98;99548.63;10338019;28;20073;-67
2021/01/06 17:53:21;;;;;;;2.65;2.45;;;;;;;1.04;68.24;99539.13;10339074;28;20054;-67
2021/01/06 17:58:23;;;;;;;3.28;2.97;;;;;;;0.97;68.69;99540.00;10337992;28;20587;-66
2021/01/06 18:03:25;;;;;;;4.25;3.95;;;;;;;1.03;69.01;99539.16;10340862;28;20050;-66
2021/01/06 18:08:31;;;;;;;4.72;4.43;;;;;;;0.93;70.14;99543.44;10342503;28;20053;-67
2021/01/06 18:13:36;;;;;;;3.97;3.67;;;;;;;0.81;70.54;99549.50;10344736;28;20046;-67
2021/01/06 18:18:41;;;;;;;4.72;4.32;;;;;;;0.80;71.18;99546.91;10341714;28;20129;-68
2021/01/06 18:23:42;;;;;;;4.88;4.47;;;;;;;1.01;70.22;99554.66;10343157;28;20053;-67
2021/01/06 18:28:44;;;;;;;4.53;4.13;;;;;;;1.14;69.58;99545.16;10339505;28;20046;-67
2021/01/06 18:33:45;;;;;;;4.47;4.18;;;;;;;1.11;69.37;99543.44;10337554;28;20089;-67
2021/01/06 18:39:02;;;;;;;4.72;4.32;;;;;;;1.10;69.58;99546.03;10341579;28;20069;-70
2021/01/06 18:44:18;;;;;;;5.43;4.93;;;;;;;1.06;69.78;99539.13;10354366;28;20122;-67
2021/01/06 18:49:26;;;;;;;6.75;6.25;;;;;;;0.93;70.61;99546.94;10337279;28;20046;-68
2021/01/06 18:54:28;;;;;;;;;;;;;;;1.04;70.20;99549.50;10341210;28;20058;-66
2021/01/06 18:59:31;;;;;;;6.38;5.88;;;;;;;0.83;71.29;99552.94;10344189;28;19921;-67
2021/01/06 19:04:35;;;;;;;8.50;6.28;;;;;;;1.06;70.92;99549.47;10377722;28;20399;-67
2021/01/06 19:09:37;;;;;;;6.57;6.07;;;;;;;0.99;70.72;99553.81;10373779;28;20106;-65
2021/01/06 19:14:40;;;;;;;9.73;8.98;;;;;;;1.03;70.09;99557.25;10376074;28;20128;-67
2021/01/06 19:20:02;;;;;;;8.10;7.50;;;;;;;0.97;70.77;99561.59;10376693;28;20042;-66
2021/01/06 19:25:14;;;;;;;6.63;6.13;;;;;;;0.90;70.60;99566.75;10376220;28;20487;-67
2021/01/06 19:30:16;;;;;;;6.40;5.90;;;;;;;0.94;69.95;99566.75;10375989;28;20057;-67
2021/01/06 19:35:23;;;;;;;5.75;5.35;;;;;;;0.73;71.05;99574.50;10375260;28;20069;-66
2021/01/06 19:40:24;;;;;;;5.50;5.03;;;;;;;0.65;70.83;99573.63;10375050;28;20461;-66
2021/01/06 19:45:27;;;;;;;6.00;5.50;;;;;;;0.72;70.38;99575.38;10375477;28;20046;-67
2021/01/06 19:50:31;;;;;;;4.97;4.57;;;;;;;0.86;69.80;99583.16;10375409;28;20488;-67
2021/01/06 19:55:33;;;;;;;5.70;5.30;;;;;;;0.91;70.17;99581.41;10375549;28;20112;-66
2021/01/06 20:00:34;;;;;;;5.22;4.72;;;;;;;0.88;70.57;99594.34;10378435;28;20520;-67
2021/01/06 20:05:35;;;;;;;4.88;4.47;;;;;;;0.74;70.44;99591.75;10382634;28;20030;-66
2021/01/06 20:10:37;;;;;;;5.47;4.97;;;;;;;0.82;70.60;99591.75;10383392;28;20141;-67
2021/01/06 20:15:38;;;;;;;5.18;4.68;;;;;;;0.62;71.19;99589.16;10382944;28;20096;-67
2021/01/06 20:20:39;;;;;;;4.05;3.75;;;;;;;0.71;71.07;99587.44;10383747;28;20074;-67
2021/01/06 20:25:45;;;;;;;5.20;4.80;;;;;;;0.66;71.36;99590.88;10382887;28;20045;-68
2021/01/06 20:30:47;;;;;;;5.05;4.65;;;;;;;0.76;71.07;99587.47;10382971;28;20050;-69
2021/01/06 20:35:48;;;;;;;3.80;3.50;;;;;;;0.70;70.24;99574.50;10381604;28;20056;-67
2021/01/06 20:40:50;;;;;;;4.93;4.53;;;;;;;0.86;69.10;99568.47;10383688;28;20049;-68
2021/01/06 20:45:52;;;;;;;5.38;4.97;;;;;;;0.60;70.62;99565.88;10382114;28;20125;-68
2021/01/06 20:50:53;;;;;;;4.90;4.50;;;;;;;0.74;69.37;99558.97;10383133;28;20053;-66
2021/01/06 20:55:55;;;;;;;5.43;5.03;;;;;;;0.58;70.06;99564.16;10382789;28;20045;-66
2021/01/06 21:00:56;;;;;;;5.80;5.40;;;;;;;0.67;70.40;99565.03;10381963;28;20042;-66
2021/01/06 21:05:58;;;;;;;6.40;5.85;;;;;;;0.87;69.24;99559.00;10381798;28;20046;-67
2021/01/06 21:11:00;;;;;;;6.43;5.93;;;;;;;0.84;69.36;99558.97;10379919;28;20042;-67
2021/01/06 21:16:01;;;;;;;6.28;5.78;;;;;;;0.79;69.61;99547.78;10380997;28;20133;-66
2021/01/06 21:21:03;;;;;;;5.97;5.47;;;;;;;0.81;69.47;99539.16;10381202;28;20045;-66
2021/01/06 21:26:04;;;;;;;6.35;5.85;;;;;;;0.65;70.02;99545.19;10380858;28;20403;-66
2021/01/06 21:31:05;;;;;;;7.32;6.72;;;;;;;0.59;70.37;99548.63;10380685;28;20548;-67
2021/01/06 21:36:07;;;;;;;7.63;7.05;;;;;;;0.72;69.63;99552.97;10380176;28;20041;-66
2021/01/06 21:41:08;;;;;;;7.80;7.15;;;;;;;0.42;70.95;99553.78;10380880;28;20038;-67
2021/01/06 21:46:09;;;;;;;7.97;7.38;;;;;;;0.58;70.68;99552.09;10380137;28;20042;-66
2021/01/06 21:51:11;;;;;;;8.55;7.82;;;;;;;0.64;70.00;99552.09;10380049;28;20542;-65
2021/01/06 21:56:13;;;;;;;8.38;7.78;;;;;;;0.81;69.21;99562.44;10380618;28;20118;-66
2021/01/06 22:01:14;;;;;;;7.60;6.90;;;;;;;0.84;69.08;99554.69;10380937;28;20050;-67
2021/01/06 22:06:17;;;;;;;8.05;7.45;;;;;;;0.77;69.56;99555.53;10380475;28;20038;-66
2021/01/06 22:11:19;;;;;;;8.15;7.43;;;;;;;0.71;70.14;99555.56;10380073;28;20046;-66
2021/01/06 22:16:21;;;;;;;9.13;8.43;;;;;;;0.78;70.22;99549.50;10381009;28;20084;-65
2021/01/06 22:21:22;;;;;;;9.55;8.75;;;;;;;0.69;70.66;99554.66;10380279;28;20073;-66
2021/01/06 22:26:23;;;;;;;11.25;10.35;;;;;;;0.63;71.29;99547.78;10380499;28;20042;-66
2021/01/06 22:31:24;;;;;;;11.93;10.93;;;;;;;0.81;70.93;99543.47;10379450;28;20077;-65
2021/01/06 22:36:27;;;;;;;12.02;10.82;;;;;;;0.78;71.24;99543.47;10380110;28;20467;-65
2021/01/06 22:41:28;;;;;;;10.10;9.35;;;;;;;0.67;71.25;99540.91;10380036;28;20050;-65
2021/01/06 22:46:30;;;;;;;13.38;9.63;;;;;;;0.67;72.17;99540.91;10380121;28;20045;-66
2021/01/06 22:51:31;;;;;;;11.27;10.38;;;;;;;0.57;72.33;99534.81;10379868;28;20053;-67
2021/01/06 22:56:39;;;;;;;13.50;12.45;;;;;;;0.82;71.04;99530.53;10380101;28;20037;-65
2021/01/06 23:01:41;;;;;;;14.20;13.07;;;;;;;0.75;71.00;99541.72;10379986;28;20053;-65
2021/01/06 23:06:42;;;;;;;13.68;12.55;;;;;;;0.62;71.47;99542.59;10379573;28;20037;-66
2021/01/06 23:11:43;;;;;;;13.57;12.52;;;;;;;0.91;70.27;99540.00;10379214;28;20096;-66
2021/01/06 23:16:45;;;;;;;13.85;12.75;;;;;;;0.68;70.76;99547.78;10378821;28;20049;-67
2021/01/06 23:21:46;;;;;;;15.25;13.95;;;;;;;0.77;70.74;99552.97;10379186;28;20044;-66
2021/01/06 23:26:50;;;;;;;14.50;13.23;;;;;;;0.69;70.82;99552.09;10378220;28;20455;-65
2021/01/06 23:31:51;;;;;;;14.52;13.32;;;;;;;0.77;70.47;99552.97;10379157;28;20093;-66
2021/01/06 23:36:53;;;;;;;14.70;13.48;;;;;;;0.72;70.48;99560.72;10385186;28;20045;-66
2021/01/06 23:41:54;;;;;;;15.73;14.43;;;;;;;0.73;71.23;99556.41;10388015;28;20446;-65
2021/01/06 23:46:56;;;;;;;16.35;14.82;;;;;;;0.68;71.86;99556.41;10386819;28;20038;-67
2021/01/06 23:51:57;;;;;;;15.15;13.85;;;;;;;0.70;72.30;99549.50;10386915;28;20050;-64
2021/01/06 23:56:58;;;;;;;14.80;13.60;;;;;;;0.43;72.51;99554.66;10386786;28;20042;-66
